sensor_id;sensor_type;location;lat;lon;timestamp;pressure;altitude;pressure_sealevel;temperature;humidity
63946;BME280;50122;56.330;43.838;2023-02-28T00:00:29;100822.63;;;-7.87;76.82
63946;BME280;50122;56.330;43.838;2023-02-28T00:02:57;100810.25;;;-7.97;76.90
63946;BME280;50122;56.330;43.838;2023-02-28T00:05:25;100803.13;;;-8.05;77.83
63946;BME280;50122;56.330;43.838;2023-02-28T00:07:52;100807.84;;;-8.15;77.42
63946;BME280;50122;56.330;43.838;2023-02-28T00:10:22;100795.88;;;-8.15;77.74
63946;BME280;50122;56.330;43.838;2023-02-28T00:12:50;100812.72;;;-8.22;77.92
63946;BME280;50122;56.330;43.838;2023-02-28T00:15:17;100816.03;;;-8.24;78.08
63946;BME280;50122;56.330;43.838;2023-02-28T00:17:44;100806.47;;;-8.28;78.10
63946;BME280;50122;56.330;43.838;2023-02-28T00:20:12;100802.19;;;-8.28;78.07
63946;BME280;50122;56.330;43.838;2023-02-28T00:22:42;100802.09;;;-8.31;78.55
63946;BME280;50122;56.330;43.838;2023-02-28T00:25:12;100800.25;;;-8.33;78.57
63946;BME280;50122;56.330;43.838;2023-02-28T00:27:40;100786.53;;;-8.35;78.62
63946;BME280;50122;56.330;43.838;2023-02-28T00:30:09;100784.06;;;-8.32;79.09
63946;BME280;50122;56.330;43.838;2023-02-28T00:32:36;100787.25;;;-8.38;78.92
63946;BME280;50122;56.330;43.838;2023-02-28T00:35:04;100785.44;;;-8.41;79.59
63946;BME280;50122;56.330;43.838;2023-02-28T00:37:31;100764.00;;;-8.43;79.11
63946;BME280;50122;56.330;43.838;2023-02-28T00:39:59;100765.72;;;-8.43;79.54
63946;BME280;50122;56.330;43.838;2023-02-28T00:42:26;100756.38;;;-8.41;79.89
63946;BME280;50122;56.330;43.838;2023-02-28T00:44:52;100764.88;;;-8.42;79.57
63946;BME280;50122;56.330;43.838;2023-02-28T00:47:20;100754.53;;;-8.45;79.95
63946;BME280;50122;56.330;43.838;2023-02-28T00:49:47;100753.56;;;-8.49;80.03
63946;BME280;50122;56.330;43.838;2023-02-28T00:52:14;100751.97;;;-8.45;80.13
63946;BME280;50122;56.330;43.838;2023-02-28T00:54:41;100744.97;;;-8.49;79.98
63946;BME280;50122;56.330;43.838;2023-02-28T00:57:09;100743.81;;;-8.58;80.09
63946;BME280;50122;56.330;43.838;2023-02-28T00:59:36;100743.69;;;-8.61;80.21
63946;BME280;50122;56.330;43.838;2023-02-28T01:02:03;100740.91;;;-8.65;80.01
63946;BME280;50122;56.330;43.838;2023-02-28T01:04:30;100727.00;;;-8.72;80.57
63946;BME280;50122;56.330;43.838;2023-02-28T01:06:56;100721.97;;;-8.69;80.85
63946;BME280;50122;56.330;43.838;2023-02-28T01:09:23;100720.22;;;-8.70;81.00
63946;BME280;50122;56.330;43.838;2023-02-28T01:11:49;100715.66;;;-8.77;80.91
63946;BME280;50122;56.330;43.838;2023-02-28T01:14:17;100684.78;;;-8.80;81.20
63946;BME280;50122;56.330;43.838;2023-02-28T01:16:45;100705.53;;;-8.74;81.88
63946;BME280;50122;56.330;43.838;2023-02-28T01:19:12;100705.66;;;-8.71;81.65
63946;BME280;50122;56.330;43.838;2023-02-28T01:21:39;100698.53;;;-8.78;81.59
63946;BME280;50122;56.330;43.838;2023-02-28T01:24:06;100702.00;;;-8.78;81.96
63946;BME280;50122;56.330;43.838;2023-02-28T01:26:33;100705.41;;;-8.77;81.81
63946;BME280;50122;56.330;43.838;2023-02-28T01:29:00;100695.59;;;-8.87;82.00
63946;BME280;50122;56.330;43.838;2023-02-28T01:31:27;100695.41;;;-8.92;81.98
63946;BME280;50122;56.330;43.838;2023-02-28T01:33:54;100705.72;;;-8.91;82.15
63946;BME280;50122;56.330;43.838;2023-02-28T01:36:22;100707.16;;;-8.97;82.25
63946;BME280;50122;56.330;43.838;2023-02-28T01:38:50;100701.16;;;-8.98;82.44
63946;BME280;50122;56.330;43.838;2023-02-28T01:41:20;100699.28;;;-9.02;83.01
63946;BME280;50122;56.330;43.838;2023-02-28T01:46:14;100697.25;;;-9.09;82.81
63946;BME280;50122;56.330;43.838;2023-02-28T01:48:50;100691.91;;;-9.15;82.96
63946;BME280;50122;56.330;43.838;2023-02-28T01:51:22;100690.19;;;-9.15;83.16
63946;BME280;50122;56.330;43.838;2023-02-28T01:53:55;100691.16;;;-9.13;83.40
63946;BME280;50122;56.330;43.838;2023-02-28T01:56:30;100687.75;;;-9.12;83.22
63946;BME280;50122;56.330;43.838;2023-02-28T01:58:59;100679.41;;;-9.08;83.39
63946;BME280;50122;56.330;43.838;2023-02-28T02:01:27;100679.47;;;-9.06;82.79
63946;BME280;50122;56.330;43.838;2023-02-28T02:04:01;100663.78;;;-9.14;83.03
63946;BME280;50122;56.330;43.838;2023-02-28T02:06:40;100655.09;;;-9.17;82.90
63946;BME280;50122;56.330;43.838;2023-02-28T02:09:08;100652.28;;;-9.23;83.34
63946;BME280;50122;56.330;43.838;2023-02-28T02:11:36;100661.16;;;-9.15;83.82
63946;BME280;50122;56.330;43.838;2023-02-28T02:17:14;100645.13;;;-9.11;84.09
63946;BME280;50122;56.330;43.838;2023-02-28T02:25:17;100627.94;;;-9.14;83.80
63946;BME280;50122;56.330;43.838;2023-02-28T02:39:17;100606.38;;;-9.19;84.34
63946;BME280;50122;56.330;43.838;2023-02-28T02:41:52;100585.91;;;-9.19;85.20
63946;BME280;50122;56.330;43.838;2023-02-28T02:44:27;100591.94;;;-9.18;84.09
63946;BME280;50122;56.330;43.838;2023-02-28T02:46:59;100579.31;;;-9.14;84.13
63946;BME280;50122;56.330;43.838;2023-02-28T02:49:31;100586.09;;;-9.14;84.65
63946;BME280;50122;56.330;43.838;2023-02-28T02:52:03;100572.25;;;-9.19;84.20
63946;BME280;50122;56.330;43.838;2023-02-28T02:54:34;100576.63;;;-9.17;84.27
63946;BME280;50122;56.330;43.838;2023-02-28T02:57:08;100565.81;;;-9.10;84.46
63946;BME280;50122;56.330;43.838;2023-02-28T02:59:38;100553.53;;;-8.96;84.29
63946;BME280;50122;56.330;43.838;2023-02-28T03:02:08;100540.50;;;-9.02;84.15
63946;BME280;50122;56.330;43.838;2023-02-28T03:04:43;100523.25;;;-9.06;83.79
63946;BME280;50122;56.330;43.838;2023-02-28T03:07:14;100509.72;;;-9.03;83.89
63946;BME280;50122;56.330;43.838;2023-02-28T03:09:40;100507.38;;;-8.97;83.88
63946;BME280;50122;56.330;43.838;2023-02-28T03:12:11;100498.78;;;-8.99;83.85
63946;BME280;50122;56.330;43.838;2023-02-28T03:14:47;100504.06;;;-8.95;83.72
63946;BME280;50122;56.330;43.838;2023-02-28T03:20:07;100465.78;;;-8.92;83.39
63946;BME280;50122;56.330;43.838;2023-02-28T03:25:45;100438.13;;;-8.78;82.26
63946;BME280;50122;56.330;43.838;2023-02-28T03:31:00;100433.22;;;-8.71;81.70
63946;BME280;50122;56.330;43.838;2023-02-28T03:33:35;100430.16;;;-8.61;80.34
63946;BME280;50122;56.330;43.838;2023-02-28T03:36:12;100432.06;;;-8.56;79.61
63946;BME280;50122;56.330;43.838;2023-02-28T03:38:45;100432.22;;;-8.51;79.03
63946;BME280;50122;56.330;43.838;2023-02-28T03:41:26;100428.00;;;-8.50;79.28
63946;BME280;50122;56.330;43.838;2023-02-28T03:44:07;100424.38;;;-8.56;79.35
63946;BME280;50122;56.330;43.838;2023-02-28T03:46:39;100409.00;;;-8.56;79.18
63946;BME280;50122;56.330;43.838;2023-02-28T03:51:41;100398.16;;;-8.48;78.24
63946;BME280;50122;56.330;43.838;2023-02-28T03:54:28;100387.94;;;-8.47;77.87
63946;BME280;50122;56.330;43.838;2023-02-28T03:57:08;100398.81;;;-8.54;78.08
63946;BME280;50122;56.330;43.838;2023-02-28T04:00:04;100391.13;;;-8.54;77.80
63946;BME280;50122;56.330;43.838;2023-02-28T04:02:30;100378.25;;;-8.56;77.91
63946;BME280;50122;56.330;43.838;2023-02-28T04:04:57;100367.09;;;-8.58;77.96
63946;BME280;50122;56.330;43.838;2023-02-28T04:07:24;100365.25;;;-8.62;78.08
63946;BME280;50122;56.330;43.838;2023-02-28T04:09:51;100340.16;;;-8.70;77.86
63946;BME280;50122;56.330;43.838;2023-02-28T04:12:18;100347.31;;;-8.62;77.99
63946;BME280;50122;56.330;43.838;2023-02-28T04:14:45;100342.03;;;-8.66;78.04
63946;BME280;50122;56.330;43.838;2023-02-28T04:17:12;100338.91;;;-8.58;77.73
63946;BME280;50122;56.330;43.838;2023-02-28T04:19:38;100326.25;;;-8.53;77.70
63946;BME280;50122;56.330;43.838;2023-02-28T04:22:05;100303.03;;;-8.58;77.76
63946;BME280;50122;56.330;43.838;2023-02-28T04:24:32;100311.00;;;-8.48;77.54
63946;BME280;50122;56.330;43.838;2023-02-28T04:26:58;100300.00;;;-8.46;77.54
63946;BME280;50122;56.330;43.838;2023-02-28T16:56:45;99353.91;;;-4.47;100.00
63946;BME280;50122;56.330;43.838;2023-02-28T16:59:19;99340.16;;;-4.47;100.00
63946;BME280;50122;56.330;43.838;2023-02-28T17:01:51;99335.88;;;-4.44;100.00
63946;BME280;50122;56.330;43.838;2023-02-28T17:04:19;99357.41;;;-4.23;100.00
63946;BME280;50122;56.330;43.838;2023-02-28T17:06:45;99359.09;;;-4.22;100.00
63946;BME280;50122;56.330;43.838;2023-02-28T17:09:18;99360.84;;;-4.23;100.00
63946;BME280;50122;56.330;43.838;2023-02-28T17:11:47;99353.09;;;-4.18;100.00
63946;BME280;50122;56.330;43.838;2023-02-28T17:14:15;99348.78;;;-4.19;100.00
63946;BME280;50122;56.330;43.838;2023-02-28T17:16:44;99350.53;;;-4.23;100.00
63946;BME280;50122;56.330;43.838;2023-02-28T17:19:16;99360.00;;;-4.15;100.00
63946;BME280;50122;56.330;43.838;2023-02-28T17:21:47;99320.41;;;-4.30;100.00
63946;BME280;50122;56.330;43.838;2023-02-28T17:24:16;99352.25;;;-4.08;100.00
63946;BME280;50122;56.330;43.838;2023-02-28T17:26:55;99347.06;;;-4.11;100.00
63946;BME280;50122;56.330;43.838;2023-02-28T17:29:22;99329.88;;;-4.18;100.00
63946;BME280;50122;56.330;43.838;2023-02-28T17:31:51;99345.34;;;-4.12;100.00
63946;BME280;50122;56.330;43.838;2023-02-28T17:34:18;99332.44;;;-4.16;100.00
63946;BME280;50122;56.330;43.838;2023-02-28T17:36:47;99333.31;;;-4.10;100.00
63946;BME280;50122;56.330;43.838;2023-02-28T17:39:15;99334.19;;;-4.08;100.00
63946;BME280;50122;56.330;43.838;2023-02-28T17:41:46;99331.59;;;-4.02;100.00
63946;BME280;50122;56.330;43.838;2023-02-28T17:44:14;99322.13;;;-3.99;100.00
63946;BME280;50122;56.330;43.838;2023-02-28T17:46:42;99325.56;;;-3.94;100.00
63946;BME280;50122;56.330;43.838;2023-02-28T17:49:09;99316.09;;;-4.02;100.00
63946;BME280;50122;56.330;43.838;2023-02-28T17:51:36;99328.16;;;-3.99;100.00
63946;BME280;50122;56.330;43.838;2023-02-28T17:54:02;99302.34;;;-4.04;100.00
63946;BME280;50122;56.330;43.838;2023-02-28T17:56:30;99309.22;;;-3.96;100.00
63946;BME280;50122;56.330;43.838;2023-02-28T17:59:01;99306.63;;;-3.87;100.00
63946;BME280;50122;56.330;43.838;2023-02-28T18:01:28;99308.34;;;-3.88;100.00
63946;BME280;50122;56.330;43.838;2023-02-28T18:03:55;99300.63;;;-3.94;99.56
63946;BME280;50122;56.330;43.838;2023-02-28T18:06:25;99298.03;;;-3.94;99.15
63946;BME280;50122;56.330;43.838;2023-02-28T18:08:54;99293.72;;;-3.92;99.60
63946;BME280;50122;56.330;43.838;2023-02-28T18:11:22;99292.88;;;-3.91;99.31
63946;BME280;50122;56.330;43.838;2023-02-28T18:13:53;99300.63;;;-3.88;99.37
63946;BME280;50122;56.330;43.838;2023-02-28T18:16:26;99291.16;;;-3.92;98.73
63946;BME280;50122;56.330;43.838;2023-02-28T18:18:52;99295.47;;;-3.94;99.17
63946;BME280;50122;56.330;43.838;2023-02-28T18:21:19;99287.72;;;-3.92;98.86
63946;BME280;50122;56.330;43.838;2023-02-28T18:23:46;99289.44;;;-3.93;98.82
63946;BME280;50122;56.330;43.838;2023-02-28T18:26:18;99290.31;;;-3.95;98.51
63946;BME280;50122;56.330;43.838;2023-02-28T18:28:45;99282.56;;;-3.97;98.86
63946;BME280;50122;56.330;43.838;2023-02-28T18:31:18;99285.16;;;-4.00;99.27
63946;BME280;50122;56.330;43.838;2023-02-28T18:33:50;99283.44;;;-4.03;99.26
63946;BME280;50122;56.330;43.838;2023-02-28T18:36:19;99286.00;;;-4.04;99.16
63946;BME280;50122;56.330;43.838;2023-02-28T18:38:47;99260.22;;;-4.16;98.81
63946;BME280;50122;56.330;43.838;2023-02-28T18:41:13;99279.13;;;-4.05;98.81
63946;BME280;50122;56.330;43.838;2023-02-28T18:43:41;99280.84;;;-4.04;98.95
63946;BME280;50122;56.330;43.838;2023-02-28T18:46:14;99284.28;;;-4.05;97.69
63946;BME280;50122;56.330;43.838;2023-02-28T18:48:42;99286.00;;;-4.03;97.95
63946;BME280;50122;56.330;43.838;2023-02-28T18:51:11;99282.53;;;-4.02;98.09
63946;BME280;50122;56.330;43.838;2023-02-28T18:53:47;99286.00;;;-4.09;98.60
63946;BME280;50122;56.330;43.838;2023-02-28T18:56:20;99278.25;;;-4.15;98.13
63946;BME280;50122;56.330;43.838;2023-02-28T18:58:49;99292.88;;;-4.06;98.41
63946;BME280;50122;56.330;43.838;2023-02-28T19:04:00;99292.00;;;-3.97;99.05
63946;BME280;50122;56.330;43.838;2023-02-28T19:06:32;99288.56;;;-3.95;98.92
63946;BME280;50122;56.330;43.838;2023-02-28T19:09:38;99275.69;;;-3.98;98.44
63946;BME280;50122;56.330;43.838;2023-02-28T19:12:08;99291.16;;;-3.96;97.95
63946;BME280;50122;56.330;43.838;2023-02-28T19:14:34;99259.31;;;-4.02;97.37
63946;BME280;50122;56.330;43.838;2023-02-28T19:17:02;99269.66;;;-3.95;96.18
63946;BME280;50122;56.330;43.838;2023-02-28T19:19:29;99279.09;;;-3.97;96.40
63946;BME280;50122;56.330;43.838;2023-02-28T19:21:56;99283.41;;;-3.93;96.68
63946;BME280;50122;56.330;43.838;2023-02-28T19:24:24;99279.13;;;-3.93;97.21
63946;BME280;50122;56.330;43.838;2023-02-28T19:26:56;99278.25;;;-3.90;96.72
63946;BME280;50122;56.330;43.838;2023-02-28T19:29:22;99281.69;;;-3.88;96.33
63946;BME280;50122;56.330;43.838;2023-02-28T19:31:49;99272.22;;;-3.89;96.03
63946;BME280;50122;56.330;43.838;2023-02-28T19:34:20;99266.22;;;-3.88;96.62
63946;BME280;50122;56.330;43.838;2023-02-28T19:36:52;99256.72;;;-3.88;97.06
63946;BME280;50122;56.330;43.838;2023-02-28T19:39:23;99257.59;;;-3.84;97.02
63946;BME280;50122;56.330;43.838;2023-02-28T19:41:49;99248.13;;;-3.90;97.11
63946;BME280;50122;56.330;43.838;2023-02-28T19:44:16;99248.13;;;-3.84;97.49
63946;BME280;50122;56.330;43.838;2023-02-28T19:46:43;99244.66;;;-3.87;97.25
63946;BME280;50122;56.330;43.838;2023-02-28T19:49:11;99248.16;;;-3.93;96.44
63946;BME280;50122;56.330;43.838;2023-02-28T19:51:38;99255.88;;;-3.85;97.00
63946;BME280;50122;56.330;43.838;2023-02-28T19:54:14;99252.44;;;-3.86;96.75
63946;BME280;50122;56.330;43.838;2023-02-28T19:56:43;99249.84;;;-3.86;96.42
63946;BME280;50122;56.330;43.838;2023-02-28T19:59:09;99244.69;;;-3.95;96.17
63946;BME280;50122;56.330;43.838;2023-02-28T20:01:46;99248.16;;;-3.91;95.85
63946;BME280;50122;56.330;43.838;2023-02-28T20:04:14;99249.00;;;-3.92;93.03
63946;BME280;50122;56.330;43.838;2023-02-28T20:06:40;99245.56;;;-3.99;93.08
63946;BME280;50122;56.330;43.838;2023-02-28T20:09:07;99239.56;;;-4.03;93.03
63946;BME280;50122;56.330;43.838;2023-02-28T20:11:34;99254.19;;;-4.08;93.10
63946;BME280;50122;56.330;43.838;2023-02-28T20:14:02;99251.59;;;-4.11;93.41
63946;BME280;50122;56.330;43.838;2023-02-28T20:16:31;99248.16;;;-4.10;93.03
63946;BME280;50122;56.330;43.838;2023-02-28T20:18:58;99244.72;;;-4.12;92.21
63946;BME280;50122;56.330;43.838;2023-02-28T20:21:29;99238.69;;;-4.11;92.10
63946;BME280;50122;56.330;43.838;2023-02-28T20:23:55;99244.72;;;-4.10;92.03
63946;BME280;50122;56.330;43.838;2023-02-28T20:26:24;99233.56;;;-4.19;91.76
63946;BME280;50122;56.330;43.838;2023-02-28T20:28:52;99246.47;;;-4.20;92.24
63946;BME280;50122;56.330;43.838;2023-02-28T20:31:21;99242.16;;;-4.20;91.36
63946;BME280;50122;56.330;43.838;2023-02-28T20:33:49;99228.41;;;-4.39;90.88
63946;BME280;50122;56.330;43.838;2023-02-28T20:36:17;99246.47;;;-4.23;90.29
63946;BME280;50122;56.330;43.838;2023-02-28T20:38:46;99238.72;;;-4.32;90.92
63946;BME280;50122;56.330;43.838;2023-02-28T20:41:13;99246.44;;;-4.28;90.89
63946;BME280;50122;56.330;43.838;2023-02-28T20:43:41;99244.75;;;-4.23;90.30
63946;BME280;50122;56.330;43.838;2023-02-28T20:46:08;99239.59;;;-4.26;89.27
63946;BME280;50122;56.330;43.838;2023-02-28T20:48:36;99240.44;;;-4.27;89.95
63946;BME280;50122;56.330;43.838;2023-02-28T20:51:06;99235.28;;;-4.31;89.63
63946;BME280;50122;56.330;43.838;2023-02-28T20:53:34;99228.41;;;-4.40;89.41
63946;BME280;50122;56.330;43.838;2023-02-28T20:56:07;99223.25;;;-4.37;89.76
63946;BME280;50122;56.330;43.838;2023-02-28T20:58:36;99237.00;;;-4.40;89.85
63946;BME280;50122;56.330;43.838;2023-02-28T21:01:14;99239.59;;;-4.44;89.01
63946;BME280;50122;56.330;43.838;2023-02-28T21:03:46;99243.00;;;-4.44;89.76
63946;BME280;50122;56.330;43.838;2023-02-28T21:06:14;99243.03;;;-4.48;89.66
63946;BME280;50122;56.330;43.838;2023-02-28T21:08:43;99243.03;;;-4.50;89.54
63946;BME280;50122;56.330;43.838;2023-02-28T21:11:18;99237.00;;;-4.49;89.27
63946;BME280;50122;56.330;43.838;2023-02-28T21:13:46;99238.72;;;-4.51;89.80
63946;BME280;50122;56.330;43.838;2023-02-28T21:16:14;99242.19;;;-4.52;89.99
63946;BME280;50122;56.330;43.838;2023-02-28T21:18:43;99247.34;;;-4.52;89.90
63946;BME280;50122;56.330;43.838;2023-02-28T21:21:13;99237.03;;;-4.52;90.21
63946;BME280;50122;56.330;43.838;2023-02-28T21:23:41;99232.72;;;-4.51;90.33
63946;BME280;50122;56.330;43.838;2023-02-28T21:26:10;99245.59;;;-4.59;90.37
63946;BME280;50122;56.330;43.838;2023-02-28T21:28:39;99243.88;;;-4.63;91.32
63946;BME280;50122;56.330;43.838;2023-02-28T21:31:11;99247.31;;;-4.61;91.70
63946;BME280;50122;56.330;43.838;2023-02-28T21:33:39;99244.72;;;-4.64;91.39
63946;BME280;50122;56.330;43.838;2023-02-28T21:36:12;99232.69;;;-4.68;91.77
63946;BME280;50122;56.330;43.838;2023-02-28T21:38:40;99232.69;;;-4.68;92.00
63946;BME280;50122;56.330;43.838;2023-02-28T21:41:10;99229.25;;;-4.69;92.85
63946;BME280;50122;56.330;43.838;2023-02-28T21:43:38;99225.81;;;-4.71;92.90
63946;BME280;50122;56.330;43.838;2023-02-28T21:46:08;99229.28;;;-4.72;93.00
63946;BME280;50122;56.330;43.838;2023-02-28T21:48:35;99228.38;;;-4.76;92.56
63946;BME280;50122;56.330;43.838;2023-02-28T21:51:07;99222.34;;;-4.85;91.92
63946;BME280;50122;56.330;43.838;2023-02-28T21:53:36;99236.13;;;-4.88;92.31
63946;BME280;50122;56.330;43.838;2023-02-28T21:56:12;99236.09;;;-4.93;92.74
63946;BME280;50122;56.330;43.838;2023-02-28T21:58:39;99229.25;;;-4.95;93.12
63946;BME280;50122;56.330;43.838;2023-02-28T22:01:12;99224.03;;;-5.00;92.99
63946;BME280;50122;56.330;43.838;2023-02-28T22:03:39;99234.34;;;-5.04;93.03
63946;BME280;50122;56.330;43.838;2023-02-28T22:06:12;99234.34;;;-5.06;92.82
63946;BME280;50122;56.330;43.838;2023-02-28T22:08:44;99239.50;;;-5.08;92.88
63946;BME280;50122;56.330;43.838;2023-02-28T22:11:13;99230.03;;;-5.13;92.52
63946;BME280;50122;56.330;43.838;2023-02-28T22:13:41;99240.34;;;-5.15;92.27
63946;BME280;50122;56.330;43.838;2023-02-28T22:16:10;99242.91;;;-5.18;92.02
63946;BME280;50122;56.330;43.838;2023-02-28T22:18:38;99237.75;;;-5.24;91.66
63946;BME280;50122;56.330;43.838;2023-02-28T22:21:08;99242.00;;;-5.26;91.51
63946;BME280;50122;56.330;43.838;2023-02-28T22:23:36;99237.75;;;-5.24;90.86
63946;BME280;50122;56.330;43.838;2023-02-28T22:26:07;99241.16;;;-5.27;91.22
63946;BME280;50122;56.330;43.838;2023-02-28T22:28:35;99241.16;;;-5.28;91.21
63946;BME280;50122;56.330;43.838;2023-02-28T22:31:13;99236.03;;;-5.27;90.48
63946;BME280;50122;56.330;43.838;2023-02-28T22:33:41;99235.13;;;-5.35;90.58
63946;BME280;50122;56.330;43.838;2023-02-28T22:36:09;99238.59;;;-5.31;90.52
63946;BME280;50122;56.330;43.838;2023-02-28T22:38:36;99235.13;;;-5.36;89.53
63946;BME280;50122;56.330;43.838;2023-02-28T22:41:04;99236.84;;;-5.31;89.79
63946;BME280;50122;56.330;43.838;2023-02-28T22:43:31;99239.44;;;-5.31;89.73
63946;BME280;50122;56.330;43.838;2023-02-28T22:46:02;99240.28;;;-5.35;89.61
63946;BME280;50122;56.330;43.838;2023-02-28T22:48:30;99248.00;;;-5.33;90.08
63946;BME280;50122;56.330;43.838;2023-02-28T22:51:08;99247.16;;;-5.34;89.35
63946;BME280;50122;56.330;43.838;2023-02-28T22:53:38;99239.44;;;-5.34;89.21
63946;BME280;50122;56.330;43.838;2023-02-28T22:56:06;99241.09;;;-5.39;88.54
63946;BME280;50122;56.330;43.838;2023-02-28T22:58:34;99243.66;;;-5.45;88.48
63946;BME280;50122;56.330;43.838;2023-02-28T23:01:09;99234.22;;;-5.49;89.01
63946;BME280;50122;56.330;43.838;2023-02-28T23:03:37;99255.63;;;-5.53;88.50
63946;BME280;50122;56.330;43.838;2023-02-28T23:08:52;99246.16;;;-5.61;88.01
63946;BME280;50122;56.330;43.838;2023-02-28T23:11:39;99251.28;;;-5.67;88.49
63946;BME280;50122;56.330;43.838;2023-02-28T23:14:08;99254.69;;;-5.72;88.01
63946;BME280;50122;56.330;43.838;2023-02-28T23:19:13;99251.19;;;-5.85;87.98
63946;BME280;50122;56.330;43.838;2023-02-28T23:21:40;99248.59;;;-5.87;88.61
63946;BME280;50122;56.330;43.838;2023-02-28T23:24:09;99251.19;;;-5.84;88.66
63946;BME280;50122;56.330;43.838;2023-02-28T23:26:38;99252.06;;;-5.83;88.48
63946;BME280;50122;56.330;43.838;2023-02-28T23:29:06;99261.50;;;-5.82;88.52
63946;BME280;50122;56.330;43.838;2023-02-28T23:31:34;99260.66;;;-5.80;88.09
63946;BME280;50122;56.330;43.838;2023-02-28T23:34:01;99257.22;;;-5.80;88.07
63946;BME280;50122;56.330;43.838;2023-02-28T23:36:28;99260.66;;;-5.81;87.54
63946;BME280;50122;56.330;43.838;2023-02-28T23:38:55;99252.09;;;-5.82;88.20
63946;BME280;50122;56.330;43.838;2023-02-28T23:41:22;99250.38;;;-5.80;87.54
63946;BME280;50122;56.330;43.838;2023-02-28T23:43:51;99244.38;;;-5.80;87.40
63946;BME280;50122;56.330;43.838;2023-02-28T23:46:19;99252.94;;;-5.80;87.55
63946;BME280;50122;56.330;43.838;2023-02-28T23:48:46;99246.06;;;-5.79;87.55
63946;BME280;50122;56.330;43.838;2023-02-28T23:51:18;99255.50;;;-5.80;88.27
63946;BME280;50122;56.330;43.838;2023-02-28T23:53:48;99255.53;;;-5.77;88.80
63946;BME280;50122;56.330;43.838;2023-02-28T23:56:20;99252.97;;;-5.72;87.33
63946;BME280;50122;56.330;43.838;2023-02-28T23:58:47;99248.72;;;-5.67;86.64
